createdAt,value
2017-12-04T00:00:42.810Z,47.60
2017-12-04T00:01:44.971Z,45.50
2017-12-04T00:02:42.831Z,48.60
2017-12-04T00:03:42.931Z,47.00
2017-12-04T00:04:42.827Z,47.00
2017-12-04T00:05:42.947Z,47.00
2017-12-04T00:06:42.828Z,44.80
2017-12-04T00:07:45.025Z,45.60
2017-12-04T00:08:42.843Z,45.90
2017-12-04T00:09:42.855Z,43.80
2017-12-04T00:10:42.981Z,43.40
2017-12-04T00:11:42.847Z,44.60
2017-12-04T00:12:43.030Z,46.10
2017-12-04T00:13:42.856Z,44.30
2017-12-04T00:14:44.032Z,42.80
2017-12-04T00:15:42.879Z,44.70
2017-12-04T00:16:43.017Z,45.20
2017-12-04T00:17:42.871Z,44.40
2017-12-04T00:18:43.033Z,46.00
2017-12-04T00:19:42.881Z,42.70
2017-12-04T00:20:43.053Z,44.70
2017-12-04T00:21:42.896Z,43.70
2017-12-04T00:22:44.083Z,44.00
2017-12-04T00:23:42.917Z,42.60
2017-12-04T00:24:43.072Z,45.30
2017-12-04T00:25:42.895Z,44.70
2017-12-04T00:26:45.030Z,46.10
2017-12-04T00:27:42.903Z,45.30
2017-12-04T00:28:43.117Z,45.90
2017-12-04T00:29:42.919Z,43.30
2017-12-04T00:30:42.924Z,45.30
2017-12-04T00:31:42.943Z,44.70
2017-12-04T00:32:42.919Z,45.90
2017-12-04T00:33:44.052Z,46.90
2017-12-04T00:34:42.932Z,44.90
2017-12-04T00:35:43.039Z,46.00
2017-12-04T00:36:42.977Z,46.60
2017-12-04T00:37:43.058Z,45.20
2017-12-04T00:38:42.956Z,44.60
2017-12-04T00:39:43.068Z,45.20
2017-12-04T00:40:42.975Z,46.40
2017-12-04T00:41:43.079Z,47.50
2017-12-04T00:42:42.982Z,46.90
2017-12-04T00:43:43.099Z,45.30
2017-12-04T00:44:43.154Z,46.60
2017-12-04T00:45:43.114Z,46.60
2017-12-04T00:46:42.986Z,46.80
2017-12-04T00:47:48.652Z,47.10
2017-12-04T00:48:42.978Z,46.60
2017-12-04T00:49:43.147Z,46.50
2017-12-04T00:50:43.007Z,47.60
2017-12-04T00:51:44.175Z,46.70
2017-12-04T00:52:43.011Z,45.90
2017-12-04T00:53:45.109Z,45.70
2017-12-04T00:54:43.004Z,47.80
2017-12-04T00:55:43.179Z,46.70
2017-12-04T00:56:43.022Z,46.30
2017-12-04T00:57:44.216Z,46.70
2017-12-04T00:58:43.020Z,46.20
2017-12-04T00:59:43.204Z,46.80
2017-12-04T01:00:43.025Z,43.00
2017-12-04T01:01:44.134Z,44.60
2017-12-04T01:02:43.033Z,43.70
2017-12-04T01:03:43.233Z,46.80
2017-12-04T01:04:43.039Z,45.60
2017-12-04T01:05:49.183Z,46.80
2017-12-04T01:06:43.052Z,46.80
2017-12-04T01:07:43.258Z,47.20
2017-12-04T01:08:43.074Z,47.00
2017-12-04T01:09:43.171Z,45.90
2017-12-04T01:10:43.071Z,48.50
2017-12-04T01:11:43.192Z,48.60
2017-12-04T01:12:43.085Z,50.00
2017-12-04T01:13:44.220Z,50.10
2017-12-04T01:14:43.087Z,48.10
2017-12-04T01:15:49.153Z,46.70
2017-12-04T01:16:43.089Z,46.50
2017-12-04T01:17:43.229Z,47.00
2017-12-04T01:18:43.090Z,48.80
2017-12-04T01:19:45.287Z,48.10
2017-12-04T01:20:44.020Z,47.10
2017-12-04T01:21:48.172Z,48.50
2017-12-04T01:22:43.127Z,48.60
2017-12-04T01:23:43.293Z,49.20
2017-12-04T01:24:43.131Z,47.20
2017-12-04T01:25:44.321Z,46.70
2017-12-04T01:26:43.120Z,47.50
2017-12-04T01:27:43.294Z,47.90
2017-12-04T01:28:43.131Z,46.70
2017-12-04T01:29:43.335Z,46.80
2017-12-04T01:30:43.149Z,48.60
2017-12-04T01:31:48.234Z,47.20
2017-12-04T01:32:43.147Z,47.90
2017-12-04T01:33:43.341Z,48.10
2017-12-04T01:34:43.163Z,47.60
2017-12-04T01:35:43.357Z,47.10
2017-12-04T01:36:43.163Z,47.80
2017-12-04T01:37:43.359Z,46.60
2017-12-04T01:38:43.160Z,46.60
2017-12-04T01:39:43.365Z,45.70
2017-12-04T01:40:43.170Z,44.80
2017-12-04T01:41:43.178Z,45.40
2017-12-04T01:42:43.193Z,43.50
2017-12-04T01:43:43.184Z,43.20
2017-12-04T01:44:43.192Z,43.20
2017-12-04T01:45:43.196Z,44.10
2017-12-04T01:46:43.202Z,45.80
2017-12-04T01:47:43.201Z,44.90
2017-12-04T01:48:43.325Z,45.50
2017-12-04T01:49:43.211Z,45.30
2017-12-04T01:50:43.276Z,45.00
2017-12-04T01:51:43.215Z,43.50
2017-12-04T01:52:43.222Z,45.00
2017-12-04T01:53:44.334Z,44.40
2017-12-04T01:54:43.229Z,44.00
2017-12-04T01:55:43.312Z,43.30
2017-12-04T01:56:43.242Z,43.60
2017-12-04T01:57:43.329Z,43.20
2017-12-04T01:58:43.250Z,44.50
2017-12-04T01:59:43.338Z,43.60
2017-12-04T02:00:43.266Z,44.40
2017-12-04T02:01:43.268Z,42.60
2017-12-04T02:02:43.360Z,43.10
2017-12-04T02:03:44.028Z,41.90
2017-12-04T02:04:43.369Z,41.70
2017-12-04T02:05:43.276Z,42.20
2017-12-04T02:06:43.277Z,41.50
2017-12-04T02:07:44.412Z,42.40
2017-12-04T02:08:43.279Z,41.70
2017-12-04T02:09:43.417Z,43.20
2017-12-04T02:10:43.278Z,42.00
2017-12-04T02:11:44.440Z,40.60
2017-12-04T02:12:43.300Z,42.30
2017-12-04T02:13:45.388Z,40.30
2017-12-04T02:14:43.299Z,42.40
2017-12-04T02:15:44.669Z,41.40
2017-12-04T02:16:43.303Z,39.90
2017-12-04T02:17:43.465Z,42.20
2017-12-04T02:18:43.309Z,42.20
2017-12-04T02:19:44.401Z,43.00
2017-12-04T02:20:43.327Z,42.90
2017-12-04T02:21:43.388Z,40.90
2017-12-04T02:22:43.328Z,42.10
2017-12-04T02:23:43.414Z,42.60
2017-12-04T02:24:43.337Z,41.80
2017-12-04T02:25:43.413Z,41.00
2017-12-04T02:26:43.362Z,40.80
2017-12-04T02:27:43.429Z,42.40
2017-12-04T02:28:43.350Z,41.30
2017-12-04T02:29:43.447Z,41.50
2017-12-04T02:30:43.356Z,40.60
2017-12-04T02:31:43.456Z,42.40
2017-12-04T02:32:43.367Z,42.30
2017-12-04T02:33:43.468Z,41.80
2017-12-04T02:34:43.376Z,40.00
2017-12-04T02:35:43.490Z,39.50
2017-12-04T02:36:43.386Z,38.60
2017-12-04T02:37:43.496Z,40.60
2017-12-04T02:38:43.404Z,38.30
2017-12-04T02:39:43.515Z,40.20
2017-12-04T02:40:43.392Z,39.90
2017-12-04T02:41:43.394Z,39.60
2017-12-04T02:42:43.538Z,40.30
2017-12-04T02:43:43.407Z,38.90
2017-12-04T02:44:43.411Z,34.10
2017-12-04T02:45:43.408Z,39.70
2017-12-04T02:46:43.420Z,37.20
2017-12-04T02:47:43.572Z,38.10
2017-12-04T02:48:43.432Z,40.30
2017-12-04T02:49:44.614Z,37.20
2017-12-04T02:50:43.436Z,35.80
2017-12-04T02:51:43.595Z,37.20
2017-12-04T02:52:43.436Z,37.20
2017-12-04T02:53:43.618Z,37.20
2017-12-04T02:54:43.455Z,38.00
2017-12-04T02:55:43.620Z,36.50
2017-12-04T02:56:43.453Z,35.90
2017-12-04T02:57:43.526Z,36.50
2017-12-04T02:58:43.471Z,36.70
2017-12-04T02:59:43.550Z,37.00
2017-12-04T03:00:43.479Z,35.60
2017-12-04T03:01:43.564Z,36.20
2017-12-04T03:02:43.490Z,34.80
2017-12-04T03:03:43.570Z,34.20
2017-12-04T03:04:43.504Z,35.90
2017-12-04T03:05:44.551Z,34.30
2017-12-04T03:06:43.498Z,35.60
2017-12-04T03:07:43.600Z,35.10
2017-12-04T03:08:43.497Z,34.40
2017-12-04T03:09:45.666Z,33.90
2017-12-04T03:10:43.521Z,35.40
2017-12-04T03:11:43.628Z,37.60
2017-12-04T03:12:43.518Z,35.40
2017-12-04T03:13:43.638Z,35.60
2017-12-04T03:14:43.513Z,36.40
2017-12-04T03:15:43.650Z,34.50
2017-12-04T03:16:43.525Z,32.60
2017-12-04T03:17:43.662Z,35.20
2017-12-04T03:18:43.546Z,35.50
2017-12-04T03:19:43.681Z,34.00
2017-12-04T03:20:43.537Z,32.90
2017-12-04T03:21:44.712Z,35.70
2017-12-04T03:22:43.555Z,33.80
2017-12-04T03:23:43.557Z,34.10
2017-12-04T03:24:43.702Z,33.50
2017-12-04T03:25:43.569Z,35.20
2017-12-04T03:26:43.717Z,34.60
2017-12-04T03:27:43.585Z,33.50
2017-12-04T03:28:43.748Z,33.70
2017-12-04T03:29:43.585Z,35.90
2017-12-04T03:30:43.576Z,33.40
2017-12-04T03:31:43.603Z,33.00
2017-12-04T03:32:43.596Z,33.70
2017-12-04T03:33:44.695Z,33.60
2017-12-04T03:34:43.601Z,31.70
2017-12-04T03:35:43.781Z,33.60
2017-12-04T03:36:43.605Z,34.50
2017-12-04T03:37:43.601Z,34.30
2017-12-04T03:38:43.627Z,34.20
2017-12-04T03:39:43.709Z,32.90
2017-12-04T03:40:43.631Z,34.00
2017-12-04T03:41:43.627Z,33.00
2017-12-04T03:42:43.727Z,34.90
2017-12-04T03:43:43.629Z,35.10
2017-12-04T03:44:43.742Z,32.70
2017-12-04T03:45:43.663Z,33.90
2017-12-04T03:46:44.790Z,32.80
2017-12-04T03:47:43.654Z,32.90
2017-12-04T03:48:43.774Z,34.20
2017-12-04T03:49:43.657Z,31.90
2017-12-04T03:50:43.783Z,33.10
2017-12-04T03:51:43.663Z,32.80
2017-12-04T03:52:43.655Z,32.80
2017-12-04T03:53:43.807Z,31.30
2017-12-04T03:54:43.684Z,32.00
2017-12-04T03:55:43.690Z,31.30
2017-12-04T03:56:43.677Z,32.40
2017-12-04T03:57:43.825Z,30.40
2017-12-04T03:58:43.680Z,31.40
2017-12-04T03:59:44.861Z,30.40
2017-12-04T04:00:43.702Z,30.80
2017-12-04T04:01:43.879Z,28.80
2017-12-04T04:02:43.698Z,29.90
2017-12-04T04:03:43.871Z,29.80
2017-12-04T04:04:43.705Z,30.20
2017-12-04T04:05:44.914Z,29.20
2017-12-04T04:06:43.714Z,29.30
2017-12-04T04:07:43.898Z,27.80
2017-12-04T04:08:43.721Z,28.20
2017-12-04T04:09:43.910Z,28.50
2017-12-04T04:10:43.732Z,26.60
2017-12-04T04:11:43.926Z,26.80
2017-12-04T04:12:43.746Z,26.00
2017-12-04T04:13:44.873Z,26.90
2017-12-04T04:14:43.746Z,27.00
2017-12-04T04:15:43.850Z,26.90
2017-12-04T04:16:43.753Z,27.00
2017-12-04T04:17:43.875Z,26.40
2017-12-04T04:18:43.763Z,27.10
2017-12-04T04:19:43.877Z,26.50
2017-12-04T04:20:43.772Z,26.10
2017-12-04T04:21:43.891Z,26.60
2017-12-04T04:22:43.773Z,26.50
2017-12-04T04:23:45.991Z,25.80
2017-12-04T04:24:43.783Z,26.10
2017-12-04T04:25:43.791Z,25.80
2017-12-04T04:26:43.925Z,25.70
2017-12-04T04:27:43.798Z,26.30
2017-12-04T04:28:43.798Z,24.70
2017-12-04T04:29:43.814Z,25.10
2017-12-04T04:30:43.812Z,26.00
2017-12-04T04:31:43.970Z,25.30
2017-12-04T04:32:43.818Z,26.80
2017-12-04T04:33:43.990Z,25.00
2017-12-04T04:34:43.836Z,24.70
2017-12-04T04:35:43.823Z,25.10
2017-12-04T04:36:43.986Z,25.10
2017-12-04T04:37:43.830Z,24.00
2017-12-04T04:38:44.007Z,24.40
2017-12-04T04:39:43.836Z,23.50
2017-12-04T04:40:44.025Z,23.80
2017-12-04T04:41:43.851Z,23.00
2017-12-04T04:42:44.868Z,25.60
2017-12-04T04:43:43.859Z,23.70
2017-12-04T04:44:44.051Z,24.20
2017-12-04T04:45:43.874Z,23.00
2017-12-04T04:46:44.068Z,23.50
2017-12-04T04:47:43.875Z,22.60
2017-12-04T04:48:44.080Z,23.70
2017-12-04T04:49:43.884Z,23.40
2017-12-04T04:50:43.893Z,23.90
2017-12-04T04:51:44.092Z,23.10
2017-12-04T04:52:43.900Z,22.60
2017-12-04T04:53:43.907Z,23.60
2017-12-04T04:54:43.898Z,23.00
2017-12-04T04:55:44.024Z,22.70
2017-12-04T04:56:43.913Z,23.70
2017-12-04T04:57:43.913Z,22.80
2017-12-04T04:58:43.912Z,23.00
2017-12-04T04:59:44.059Z,21.80
2017-12-04T05:00:43.920Z,22.10
2017-12-04T05:01:44.070Z,22.10
2017-12-04T05:02:43.925Z,23.20
2017-12-04T05:03:43.925Z,23.20
2017-12-04T05:04:43.939Z,23.00
2017-12-04T05:05:44.090Z,23.90
2017-12-04T05:06:43.955Z,23.90
2017-12-04T05:07:44.100Z,23.40
2017-12-04T05:08:43.951Z,22.40
2017-12-04T05:09:44.113Z,22.70
2017-12-04T05:10:43.972Z,24.40
2017-12-04T05:11:43.955Z,23.80
2017-12-04T05:12:43.958Z,23.80
2017-12-04T05:13:44.140Z,24.80
2017-12-04T05:14:43.966Z,24.30
2017-12-04T05:15:43.969Z,25.20
2017-12-04T05:16:44.171Z,24.80
2017-12-04T05:17:43.986Z,23.10
2017-12-04T05:18:44.197Z,23.70
2017-12-04T05:19:44.000Z,23.30
2017-12-04T05:20:43.994Z,23.80
2017-12-04T05:21:44.201Z,24.00
2017-12-04T05:22:44.003Z,23.80
2017-12-04T05:23:44.215Z,24.90
2017-12-04T05:24:44.017Z,23.50
2017-12-04T05:25:45.330Z,23.90
2017-12-04T05:26:44.030Z,23.50
2017-12-04T05:27:44.042Z,25.10
2017-12-04T05:28:44.262Z,24.10
2017-12-04T05:29:44.054Z,23.90
2017-12-04T05:30:44.049Z,25.20
2017-12-04T05:31:44.052Z,24.10
2017-12-04T05:32:44.073Z,24.50
2017-12-04T05:33:44.047Z,24.40
2017-12-04T05:34:44.077Z,23.50
2017-12-04T05:35:44.051Z,24.70
2017-12-04T05:36:44.068Z,23.90
2017-12-04T05:37:44.078Z,23.70
2017-12-04T05:38:44.107Z,23.70
2017-12-04T05:39:44.078Z,23.80
2017-12-04T05:40:44.121Z,24.40
2017-12-04T05:41:44.073Z,23.90
2017-12-04T05:42:44.082Z,24.10
2017-12-04T05:43:44.160Z,24.60
2017-12-04T05:44:44.091Z,23.90
2017-12-04T05:45:44.156Z,24.10
2017-12-04T05:46:44.098Z,23.60
2017-12-04T05:47:44.148Z,23.10
2017-12-04T05:48:44.090Z,23.60
2017-12-04T05:49:44.102Z,23.40
2017-12-04T05:50:44.190Z,23.80
2017-12-04T05:51:44.113Z,22.90
2017-12-04T05:52:44.215Z,23.10
2017-12-04T05:53:44.119Z,22.50
2017-12-04T05:54:44.220Z,22.60
2017-12-04T05:55:44.130Z,22.70
2017-12-04T05:56:45.252Z,22.10
2017-12-04T05:57:44.143Z,23.30
2017-12-04T05:58:44.240Z,22.60
2017-12-04T05:59:44.158Z,22.50
2017-12-04T06:00:44.258Z,23.00
2017-12-04T06:01:44.161Z,22.90
2017-12-04T06:02:44.156Z,24.20
2017-12-04T06:03:44.165Z,23.10
2017-12-04T06:04:44.286Z,23.30
2017-12-04T06:05:44.169Z,23.50
2017-12-04T06:06:44.306Z,23.30
2017-12-04T06:07:44.177Z,23.90
2017-12-04T06:08:44.181Z,22.90
2017-12-04T06:09:44.318Z,23.80
2017-12-04T06:10:44.190Z,22.90
2017-12-04T06:11:44.238Z,23.20
2017-12-04T06:12:44.198Z,24.40
2017-12-04T06:13:44.250Z,23.50
2017-12-04T06:14:44.205Z,21.90
2017-12-04T06:15:44.252Z,23.10
2017-12-04T06:16:44.210Z,22.20
2017-12-04T06:17:44.264Z,23.40
2017-12-04T06:18:44.213Z,21.50
2017-12-04T06:19:44.284Z,22.90
2017-12-04T06:20:44.234Z,22.60
2017-12-04T06:21:45.326Z,24.50
2017-12-04T06:22:44.234Z,24.00
2017-12-04T06:23:46.353Z,22.90
2017-12-04T06:24:44.234Z,24.30
2017-12-04T06:25:44.243Z,23.20
2017-12-04T06:26:44.329Z,22.90
2017-12-04T06:27:44.247Z,22.20
2017-12-04T06:28:44.246Z,23.50
2017-12-04T06:29:44.249Z,23.10
2017-12-04T06:30:45.382Z,21.30
2017-12-04T06:31:44.264Z,22.00
2017-12-04T06:32:44.370Z,22.00
2017-12-04T06:33:44.267Z,22.20
2017-12-04T06:34:44.384Z,22.30
2017-12-04T06:35:44.281Z,23.30
2017-12-04T06:36:44.404Z,21.60
2017-12-04T06:37:44.293Z,23.50
2017-12-04T06:38:44.409Z,21.50
2017-12-04T06:39:44.295Z,21.40
2017-12-04T06:40:44.419Z,20.90
2017-12-04T06:41:44.324Z,21.20
2017-12-04T06:42:44.316Z,21.30
2017-12-04T06:43:44.322Z,20.90
2017-12-04T06:44:44.308Z,20.20
2017-12-04T06:45:44.468Z,21.50
2017-12-04T06:46:44.321Z,20.70
2017-12-04T06:47:44.469Z,20.20
2017-12-04T06:48:44.325Z,21.50
2017-12-04T06:49:44.336Z,19.90
2017-12-04T06:50:44.340Z,19.10
2017-12-04T06:51:44.350Z,19.50
2017-12-04T06:52:44.383Z,19.70
2017-12-04T06:53:44.349Z,18.20
2017-12-04T06:54:45.056Z,19.70
2017-12-04T06:55:44.353Z,20.90
2017-12-04T06:56:44.356Z,17.50
2017-12-04T06:57:44.360Z,18.00
2017-12-04T06:58:44.449Z,17.70
2017-12-04T06:59:44.381Z,18.30
2017-12-04T07:00:44.457Z,17.30
2017-12-04T07:01:44.384Z,17.60
2017-12-04T07:02:44.469Z,18.40
2017-12-04T07:03:44.390Z,18.40
2017-12-04T07:04:44.485Z,17.50
2017-12-04T07:05:44.404Z,16.40
2017-12-04T07:06:44.498Z,17.10
2017-12-04T07:07:44.402Z,17.50
2017-12-04T07:08:44.516Z,16.70
2017-12-04T07:09:44.417Z,17.00
2017-12-04T07:10:45.548Z,16.60
2017-12-04T07:11:44.423Z,16.80
2017-12-04T07:12:44.537Z,16.60
2017-12-04T07:13:44.430Z,19.00
2017-12-04T07:14:44.558Z,17.60
2017-12-04T07:15:44.435Z,16.30
2017-12-04T07:16:44.570Z,15.80
2017-12-04T07:17:44.446Z,15.60
2017-12-04T07:18:44.598Z,15.90
2017-12-04T07:19:44.455Z,16.00
2017-12-04T07:20:44.588Z,16.50
2017-12-04T07:21:44.456Z,16.70
2017-12-04T07:22:44.611Z,16.80
2017-12-04T07:23:44.463Z,17.20
2017-12-04T07:24:44.624Z,16.10
2017-12-04T07:25:44.478Z,16.00
2017-12-04T07:26:44.656Z,17.30
2017-12-04T07:27:44.485Z,16.40
2017-12-04T07:28:44.664Z,16.80
2017-12-04T07:29:44.489Z,17.00
2017-12-04T07:30:45.600Z,16.90
2017-12-04T07:31:44.506Z,16.30
2017-12-04T07:32:44.578Z,16.50
2017-12-04T07:33:44.509Z,16.00
2017-12-04T07:34:44.589Z,16.10
2017-12-04T07:35:44.519Z,16.20
2017-12-04T07:36:44.601Z,16.80
2017-12-04T07:37:44.515Z,17.10
2017-12-04T07:38:44.533Z,16.60
2017-12-04T07:39:44.528Z,15.80
2017-12-04T07:40:44.641Z,15.00
2017-12-04T07:41:44.529Z,16.30
2017-12-04T07:42:44.543Z,15.20
2017-12-04T07:43:44.542Z,15.70
2017-12-04T07:44:44.538Z,15.20
2017-12-04T07:45:44.556Z,14.60
2017-12-04T07:46:44.550Z,16.60
2017-12-04T07:47:44.552Z,14.60
2017-12-04T07:48:44.561Z,15.10
2017-12-04T07:49:44.566Z,14.60
2017-12-04T07:50:44.595Z,14.50
2017-12-04T07:51:44.568Z,15.70
2017-12-04T07:52:44.591Z,15.60
2017-12-04T07:53:44.581Z,14.50
2017-12-04T07:54:44.577Z,16.10
2017-12-04T07:55:44.624Z,16.20
2017-12-04T07:56:44.595Z,15.50
2017-12-04T07:57:44.606Z,16.10
2017-12-04T07:58:44.602Z,15.50
2017-12-04T07:59:44.616Z,16.00
2017-12-04T08:00:44.615Z,15.70
2017-12-04T08:01:44.638Z,15.50
2017-12-04T08:02:44.684Z,15.60
2017-12-04T08:03:44.615Z,15.30
2017-12-04T08:04:44.629Z,14.90
2017-12-04T08:05:44.704Z,14.70
2017-12-04T08:06:44.625Z,13.70
2017-12-04T08:07:46.774Z,14.60
2017-12-04T08:08:44.644Z,14.10
2017-12-04T08:09:44.635Z,14.20
2017-12-04T08:10:44.738Z,14.50
2017-12-04T08:11:44.663Z,13.80
2017-12-04T08:12:44.711Z,14.40
2017-12-04T08:13:44.690Z,13.80
2017-12-04T08:14:44.725Z,14.90
2017-12-04T08:15:44.673Z,13.60
2017-12-04T08:16:44.721Z,13.00
2017-12-04T08:17:44.676Z,13.20
2017-12-04T08:18:44.771Z,12.00
2017-12-04T08:19:44.676Z,12.60
2017-12-04T08:20:44.759Z,12.70
2017-12-04T08:21:44.695Z,12.60
2017-12-04T08:22:44.766Z,13.90
2017-12-04T08:23:44.706Z,12.40
2017-12-04T08:24:44.780Z,12.80
2017-12-04T08:25:44.699Z,13.00
2017-12-04T08:26:44.793Z,12.10
2017-12-04T08:27:44.713Z,11.30
2017-12-04T08:28:44.807Z,11.10
2017-12-04T08:29:44.722Z,11.30
2017-12-04T08:30:45.741Z,10.60
2017-12-04T08:31:44.730Z,10.20
2017-12-04T08:32:44.832Z,10.80
2017-12-04T08:33:44.803Z,10.00
2017-12-04T08:34:44.845Z,9.50
2017-12-04T08:35:44.734Z,9.70
2017-12-04T08:36:44.747Z,10.60
2017-12-04T08:37:44.754Z,9.20
2017-12-04T08:38:44.755Z,8.90
2017-12-04T08:39:44.765Z,8.60
2017-12-04T08:40:44.770Z,9.10
2017-12-04T08:41:44.768Z,8.50
2017-12-04T08:42:44.769Z,7.20
2017-12-04T08:43:44.775Z,8.00
2017-12-04T08:44:44.785Z,8.20
2017-12-04T08:45:44.788Z,7.30
2017-12-04T08:46:44.786Z,7.60
2017-12-04T08:47:44.799Z,7.90
2017-12-04T08:48:44.797Z,8.00
2017-12-04T08:49:44.848Z,7.90
2017-12-04T08:50:44.829Z,8.20
2017-12-04T08:51:44.824Z,8.30
2017-12-04T08:52:44.837Z,8.30
2017-12-04T08:53:44.811Z,7.90
2017-12-04T08:54:44.815Z,7.30
2017-12-04T08:55:44.832Z,7.00
2017-12-04T08:56:44.822Z,7.20
2017-12-04T08:57:44.855Z,6.80
2017-12-04T08:58:44.834Z,7.10
2017-12-04T08:59:44.830Z,6.80
2017-12-04T09:00:44.850Z,7.00
2017-12-04T09:01:44.938Z,6.80
2017-12-04T09:02:44.868Z,6.90
2017-12-04T09:03:44.940Z,7.10
2017-12-04T09:04:44.872Z,7.40
2017-12-04T09:05:44.954Z,7.20
2017-12-04T09:06:44.882Z,7.60
2017-12-04T09:07:44.983Z,6.50
2017-12-04T09:08:44.882Z,6.90
2017-12-04T09:09:44.987Z,6.80
2017-12-04T09:10:44.891Z,6.30
2017-12-04T09:11:45.006Z,6.00
2017-12-04T09:12:44.910Z,6.70
2017-12-04T09:13:44.912Z,6.90
2017-12-04T09:14:44.903Z,7.30
2017-12-04T09:15:44.919Z,7.00
2017-12-04T09:16:44.936Z,7.70
2017-12-04T09:17:44.932Z,7.10
2017-12-04T09:18:44.909Z,6.80
2017-12-04T09:19:44.950Z,7.20
2017-12-04T09:20:44.924Z,7.90
2017-12-04T09:21:44.955Z,7.00
2017-12-04T09:22:44.929Z,7.50
2017-12-04T09:23:44.930Z,7.30
2017-12-04T09:24:44.989Z,7.70
2017-12-04T09:25:44.944Z,8.20
2017-12-04T09:26:45.005Z,7.70
2017-12-04T09:27:45.005Z,8.40
2017-12-04T09:28:45.037Z,8.10
2017-12-04T09:29:44.950Z,8.40
2017-12-04T09:30:45.030Z,9.40
2017-12-04T09:31:44.970Z,9.20
2017-12-04T09:32:45.040Z,9.10
2017-12-04T09:33:44.973Z,8.80
2017-12-04T09:34:45.056Z,8.50
2017-12-04T09:35:44.982Z,8.40
2017-12-04T09:36:45.068Z,9.00
2017-12-04T09:37:45.048Z,9.20
2017-12-04T09:38:46.109Z,8.90
2017-12-04T09:39:45.002Z,9.40
2017-12-04T09:40:45.112Z,8.90
2017-12-04T09:41:45.016Z,8.70
2017-12-04T09:42:45.118Z,9.00
2017-12-04T09:43:45.014Z,10.00
2017-12-04T09:44:45.132Z,10.30
2017-12-04T09:45:45.019Z,9.60
2017-12-04T09:46:45.132Z,9.60
2017-12-04T09:47:45.023Z,8.20
2017-12-04T09:48:45.152Z,7.90
2017-12-04T09:49:45.058Z,8.80
2017-12-04T09:50:45.172Z,8.70
2017-12-04T09:51:45.046Z,8.70
2017-12-04T09:52:45.125Z,8.40
2017-12-04T09:53:45.059Z,8.80
2017-12-04T09:54:45.083Z,8.90
2017-12-04T09:55:45.071Z,8.80
2017-12-04T09:56:45.098Z,9.10
2017-12-04T09:57:45.104Z,8.90
2017-12-04T09:58:46.132Z,8.60
2017-12-04T09:59:45.087Z,8.30
2017-12-04T10:00:45.128Z,9.40
2017-12-04T10:01:45.085Z,8.40
2017-12-04T10:02:46.154Z,8.50
2017-12-04T10:03:45.112Z,9.30
2017-12-04T10:04:45.150Z,8.80
2017-12-04T10:05:45.136Z,8.40
2017-12-04T10:06:45.194Z,8.60
2017-12-04T10:07:45.135Z,8.50
2017-12-04T10:08:45.174Z,9.10
2017-12-04T10:09:45.132Z,8.30
2017-12-04T10:10:45.225Z,8.30
2017-12-04T10:11:45.117Z,8.30
2017-12-04T10:12:45.202Z,7.70
2017-12-04T10:13:45.129Z,7.30
2017-12-04T10:14:45.265Z,7.50
2017-12-04T10:15:45.140Z,7.10
2017-12-04T10:16:45.233Z,6.70
2017-12-04T10:17:45.164Z,7.80
2017-12-04T10:18:45.247Z,7.20
2017-12-04T10:19:45.156Z,7.50
2017-12-04T10:20:46.177Z,8.10
2017-12-04T10:21:45.177Z,8.50
2017-12-04T10:22:45.268Z,9.30
2017-12-04T10:23:45.170Z,8.30
2017-12-04T10:24:45.284Z,6.60
2017-12-04T10:25:45.186Z,6.60
2017-12-04T10:26:45.188Z,7.10
2017-12-04T10:27:45.194Z,6.80
2017-12-04T10:28:45.209Z,6.90
2017-12-04T10:29:45.219Z,6.70
2017-12-04T10:30:45.204Z,6.70
2017-12-04T10:31:45.237Z,7.90
2017-12-04T10:32:45.217Z,7.60
2017-12-04T10:33:45.245Z,7.40
2017-12-04T10:34:45.228Z,7.50
2017-12-04T10:35:45.256Z,7.40
2017-12-04T10:36:45.243Z,7.30
2017-12-04T10:37:45.283Z,7.60
2017-12-04T10:38:45.253Z,8.10
2017-12-04T10:39:45.282Z,7.90
2017-12-04T10:40:45.247Z,8.10
2017-12-04T10:41:45.292Z,7.50
2017-12-04T10:42:45.257Z,7.80
2017-12-04T10:43:45.308Z,8.10
2017-12-04T10:44:45.281Z,8.20
2017-12-04T10:45:45.328Z,8.10
2017-12-04T10:46:45.287Z,7.90
2017-12-04T10:47:45.334Z,8.40
2017-12-04T10:48:45.306Z,7.90
2017-12-04T10:49:45.335Z,8.10
2017-12-04T10:50:45.288Z,8.20
2017-12-04T10:51:45.370Z,8.00
2017-12-04T10:52:45.328Z,8.20
2017-12-04T10:53:45.381Z,8.40
2017-12-04T10:54:45.312Z,7.90
2017-12-04T10:55:45.416Z,8.00
2017-12-04T10:56:45.303Z,7.70
2017-12-04T10:57:45.413Z,7.50
2017-12-04T10:58:45.309Z,8.20
2017-12-04T10:59:45.417Z,8.30
2017-12-04T11:00:45.323Z,7.80
2017-12-04T11:01:45.435Z,8.00
2017-12-04T11:02:45.328Z,7.30
2017-12-04T11:03:45.458Z,8.00
2017-12-04T11:04:45.347Z,7.20
2017-12-04T11:05:45.458Z,8.00
2017-12-04T11:06:45.349Z,7.50
2017-12-04T11:07:45.364Z,7.90
2017-12-04T11:08:45.354Z,8.00
2017-12-04T11:09:45.387Z,8.10
2017-12-04T11:10:45.364Z,7.60
2017-12-04T11:11:45.408Z,7.50
2017-12-04T11:12:45.383Z,8.10
2017-12-04T11:13:45.400Z,7.90
2017-12-04T11:14:45.389Z,8.00
2017-12-04T11:15:45.421Z,7.70
2017-12-04T11:16:45.405Z,6.80
2017-12-04T11:17:45.435Z,7.80
2017-12-04T11:18:45.403Z,7.20
2017-12-04T11:19:45.454Z,8.00
2017-12-04T11:20:45.453Z,7.00
2017-12-04T11:21:45.460Z,7.40
2017-12-04T11:22:45.428Z,7.10
2017-12-04T11:23:45.473Z,7.70
2017-12-04T11:24:45.421Z,7.00
2017-12-04T11:25:45.500Z,7.30
2017-12-04T11:26:45.441Z,7.00
2017-12-04T11:27:45.513Z,7.80
2017-12-04T11:28:45.447Z,7.40
2017-12-04T11:29:45.521Z,7.40
2017-12-04T11:30:45.446Z,7.80
2017-12-04T11:31:45.545Z,8.30
2017-12-04T11:32:45.463Z,7.90
2017-12-04T11:33:45.564Z,7.20
2017-12-04T11:34:45.471Z,8.20
2017-12-04T11:35:45.571Z,7.10
2017-12-04T11:36:45.481Z,7.80
2017-12-04T11:37:45.604Z,7.50
2017-12-04T11:38:45.496Z,7.50
2017-12-04T11:39:45.586Z,7.90
2017-12-04T11:40:45.504Z,7.20
2017-12-04T11:41:45.605Z,7.10
2017-12-04T11:42:45.494Z,6.80
2017-12-04T11:43:45.624Z,7.60
2017-12-04T11:44:45.501Z,6.90
2017-12-04T11:45:45.546Z,6.80
2017-12-04T11:46:45.520Z,6.60
2017-12-04T11:47:45.520Z,9.40
2017-12-04T11:48:45.531Z,7.80
2017-12-04T11:49:45.537Z,7.10
2017-12-04T11:50:45.568Z,6.90
2017-12-04T11:51:45.532Z,7.50
2017-12-04T11:52:45.584Z,7.20
2017-12-04T11:53:45.544Z,7.70
2017-12-04T11:54:45.600Z,7.40
2017-12-04T11:55:45.560Z,7.50
2017-12-04T11:56:45.606Z,6.30
2017-12-04T11:57:45.567Z,7.00
2017-12-04T11:58:45.634Z,7.60
2017-12-04T11:59:45.580Z,6.50
2017-12-04T12:00:45.639Z,6.80
2017-12-04T12:01:45.574Z,6.70
2017-12-04T12:02:45.668Z,6.40
2017-12-04T12:03:45.619Z,7.90
2017-12-04T12:04:45.680Z,6.60
2017-12-04T12:05:45.620Z,6.30
2017-12-04T12:06:45.744Z,6.30
2017-12-04T12:07:45.608Z,6.20
2017-12-04T12:08:45.698Z,6.50
2017-12-04T12:09:45.634Z,6.10
2017-12-04T12:10:45.709Z,6.30
2017-12-04T12:11:45.631Z,6.20
2017-12-04T12:12:45.714Z,6.40
2017-12-04T12:13:45.649Z,6.50
2017-12-04T12:14:45.741Z,6.20
2017-12-04T12:15:45.681Z,6.10
2017-12-04T12:16:45.738Z,6.30
2017-12-04T12:17:45.669Z,6.60
2017-12-04T12:18:46.784Z,6.10
2017-12-04T12:19:45.693Z,6.70
2017-12-04T12:20:45.770Z,5.40
2017-12-04T12:21:45.681Z,4.70
2017-12-04T12:22:45.780Z,5.20
2017-12-04T12:23:45.679Z,5.40
2017-12-04T12:24:45.805Z,5.50
2017-12-04T12:25:45.693Z,5.40
2017-12-04T12:26:45.819Z,5.50
2017-12-04T12:27:45.684Z,5.10
2017-12-04T12:28:45.736Z,5.00
2017-12-04T12:29:45.787Z,4.50
2017-12-04T12:30:45.743Z,4.30
2017-12-04T12:31:45.709Z,4.80
2017-12-04T12:32:45.712Z,4.20
2017-12-04T12:33:45.748Z,3.70
2017-12-04T12:34:45.717Z,4.10
2017-12-04T12:35:45.806Z,4.20
2017-12-04T12:36:45.734Z,4.10
2017-12-04T12:37:45.748Z,4.50
2017-12-04T12:38:45.787Z,3.50
2017-12-04T12:39:45.745Z,4.00
2017-12-04T12:40:45.807Z,4.80
2017-12-04T12:41:45.759Z,4.00
2017-12-04T12:42:45.813Z,4.10
2017-12-04T12:43:45.767Z,4.30
2017-12-04T12:44:45.822Z,3.50
2017-12-04T12:45:45.810Z,3.30
2017-12-04T12:46:45.786Z,3.00
2017-12-04T12:47:45.865Z,3.40
2017-12-04T12:48:45.785Z,3.50
2017-12-04T12:49:45.872Z,2.80
2017-12-04T12:50:45.789Z,2.70
2017-12-04T12:51:45.820Z,2.80
2017-12-04T12:52:45.845Z,2.60
2017-12-04T12:53:45.896Z,2.70
2017-12-04T12:54:45.823Z,2.40
2017-12-04T12:55:45.908Z,2.40
2017-12-04T12:56:45.825Z,2.60
2017-12-04T12:57:45.916Z,2.20
2017-12-04T12:58:45.863Z,2.80
2017-12-04T12:59:45.927Z,2.70
2017-12-04T13:00:45.839Z,2.40
2017-12-04T13:01:45.961Z,2.20